TimeCDT,TemperatureF,Dew PointF,Humidity,Sea Level PressureIn,VisibilityMPH,Wind Direction,Wind SpeedMPH,Gust SpeedMPH,PrecipitationIn,Events,Conditions,WindDirDegrees,DateUTC
12:12 AM,23.0,17.6,80,30.23,10.0,SW,3.5,-,N/A,,Clear,230,2012-10-07 05:12:00
12:33 AM,21.2,17.6,86,30.22,10.0,WSW,4.6,-,N/A,,Clear,250,2012-10-07 05:33:00
12:53 AM,21.2,17.6,86,30.22,10.0,WSW,5.8,-,N/A,,Clear,250,2012-10-07 05:53:00
1:12 AM,24.8,19.4,80,30.21,10.0,WSW,5.8,-,N/A,,Clear,250,2012-10-07 06:12:00
1:33 AM,24.8,19.4,80,30.21,10.0,WSW,4.6,-,N/A,,Clear,250,2012-10-07 06:33:00
1:53 AM,23.0,17.6,80,30.21,10.0,WSW,5.8,-,N/A,,Clear,250,2012-10-07 06:53:00
2:12 AM,24.8,19.4,80,30.20,10.0,WSW,5.8,-,N/A,,Clear,250,2012-10-07 07:12:00
2:33 AM,23.0,17.6,80,30.20,10.0,WSW,4.6,-,N/A,,Clear,240,2012-10-07 07:33:00
2:52 AM,21.2,17.6,86,30.19,10.0,WSW,5.8,-,N/A,,Clear,250,2012-10-07 07:52:00
3:12 AM,23.0,17.6,80,30.18,10.0,WSW,5.8,-,N/A,,Clear,250,2012-10-07 08:12:00
3:52 AM,21.2,17.6,86,30.17,10.0,WSW,4.6,-,N/A,,Clear,240,2012-10-07 08:52:00
4:13 AM,21.2,17.6,86,30.16,10.0,SW,4.6,-,N/A,,Clear,230,2012-10-07 09:13:00
4:33 AM,21.2,17.6,86,30.16,10.0,SW,5.8,-,N/A,,Clear,230,2012-10-07 09:33:00
4:52 AM,21.2,17.6,86,30.15,10.0,SW,6.9,-,N/A,,Clear,220,2012-10-07 09:52:00
5:13 AM,21.2,17.6,86,30.14,10.0,SW,6.9,-,N/A,,Clear,230,2012-10-07 10:13:00
5:33 AM,21.2,17.6,86,30.14,10.0,SW,5.8,-,N/A,,Clear,220,2012-10-07 10:33:00
5:52 AM,19.4,15.8,86,30.13,10.0,SSW,5.8,-,N/A,,Clear,210,2012-10-07 10:52:00
6:13 AM,21.2,17.6,86,30.13,10.0,SW,5.8,-,N/A,,Clear,220,2012-10-07 11:13:00
6:33 AM,21.2,19.4,93,30.13,10.0,SW,5.8,-,N/A,,Clear,220,2012-10-07 11:33:00
6:52 AM,21.2,19.4,93,30.12,10.0,SW,5.8,-,N/A,,Clear,220,2012-10-07 11:52:00
7:13 AM,21.2,17.6,86,30.12,10.0,SSW,4.6,-,N/A,,Clear,210,2012-10-07 12:13:00
7:33 AM,21.2,17.6,86,30.11,10.0,SSW,4.6,-,N/A,,Clear,210,2012-10-07 12:33:00
7:52 AM,19.4,17.6,93,30.11,10.0,SSW,4.6,-,N/A,,Clear,210,2012-10-07 12:52:00
8:13 AM,23.0,19.4,86,30.10,10.0,SSW,4.6,-,N/A,,Clear,200,2012-10-07 13:13:00
8:32 AM,24.8,19.4,80,30.10,10.0,South,3.5,-,N/A,,Clear,190,2012-10-07 13:32:00
8:53 AM,26.6,21.2,80,30.10,10.0,SSW,5.8,-,N/A,,Clear,200,2012-10-07 13:53:00
9:13 AM,30.2,23.0,75,30.09,10.0,SSW,6.9,-,N/A,,Clear,210,2012-10-07 14:13:00
9:32 AM,35.6,24.8,65,30.09,10.0,SW,6.9,-,N/A,,Clear,230,2012-10-07 14:32:00
9:53 AM,37.4,24.8,60,30.08,10.0,West,10.4,-,N/A,,Clear,260,2012-10-07 14:53:00
10:12 AM,39.2,24.8,56,30.08,10.0,WSW,11.5,-,N/A,,Clear,240,2012-10-07 15:12:00
10:33 AM,42.8,23.0,46,30.07,10.0,WSW,12.7,-,N/A,,Clear,250,2012-10-07 15:33:00
10:53 AM,44.6,23.0,43,30.06,10.0,WSW,12.7,-,N/A,,Clear,250,2012-10-07 15:53:00
11:12 AM,46.4,21.2,37,30.06,10.0,WSW,11.5,17.3,N/A,,Clear,250,2012-10-07 16:12:00
11:33 AM,48.2,21.2,34,30.05,10.0,West,12.7,18.4,N/A,,Clear,260,2012-10-07 16:33:00
11:53 AM,48.2,21.2,34,30.04,10.0,SW,11.5,-,N/A,,Clear,230,2012-10-07 16:53:00
12:12 PM,51.8,21.2,30,30.03,10.0,WSW,12.7,18.4,N/A,,Clear,240,2012-10-07 17:12:00
12:33 PM,51.8,19.4,28,30.02,10.0,SW,12.7,18.4,N/A,,Clear,230,2012-10-07 17:33:00
12:53 PM,53.6,17.6,24,30.01,10.0,West,11.5,18.4,N/A,,Clear,260,2012-10-07 17:53:00
1:33 PM,55.4,17.6,23,29.98,10.0,West,12.7,20.7,N/A,,Clear,260,2012-10-07 18:33:00
1:53 PM,55.4,17.6,23,29.97,10.0,West,13.8,23.0,N/A,,Scattered Clouds,260,2012-10-07 18:53:00
2:12 PM,55.4,17.6,23,29.96,10.0,WNW,16.1,23.0,N/A,,Scattered Clouds,290,2012-10-07 19:12:00
2:33 PM,55.4,17.6,23,29.95,10.0,West,16.1,24.2,N/A,,Overcast,270,2012-10-07 19:33:00
2:53 PM,55.4,17.6,23,29.94,10.0,WSW,16.1,25.3,N/A,,Overcast,250,2012-10-07 19:53:00
3:12 PM,55.4,17.6,23,29.93,10.0,West,16.1,21.9,N/A,,Overcast,260,2012-10-07 20:12:00
3:33 PM,57.2,17.6,21,29.92,10.0,West,17.3,23.0,N/A,,Overcast,280,2012-10-07 20:33:00
3:53 PM,57.2,15.8,20,29.91,10.0,WNW,16.1,21.9,N/A,,Mostly Cloudy,290,2012-10-07 20:53:00
4:12 PM,55.4,17.6,23,29.91,10.0,West,13.8,24.2,N/A,,Scattered Clouds,280,2012-10-07 21:12:00
4:33 PM,55.4,17.6,23,29.91,10.0,West,15.0,-,N/A,,Scattered Clouds,270,2012-10-07 21:33:00
4:52 PM,55.4,17.6,23,29.90,10.0,West,15.0,19.6,N/A,,Scattered Clouds,280,2012-10-07 21:52:00
5:12 PM,55.4,15.8,21,29.89,10.0,West,8.1,-,N/A,,Scattered Clouds,280,2012-10-07 22:12:00
5:33 PM,55.4,15.8,21,29.89,10.0,West,11.5,-,N/A,,Mostly Cloudy,270,2012-10-07 22:33:00
5:52 PM,53.6,15.8,22,29.89,10.0,West,10.4,-,N/A,,Mostly Cloudy,280,2012-10-07 22:52:00
6:12 PM,53.6,15.8,22,29.89,10.0,West,6.9,-,N/A,,Mostly Cloudy,280,2012-10-07 23:12:00
6:33 PM,50.0,15.8,26,29.88,10.0,West,5.8,-,N/A,,Scattered Clouds,280,2012-10-07 23:33:00
6:52 PM,48.2,15.8,27,29.88,10.0,WSW,4.6,-,N/A,,Clear,250,2012-10-07 23:52:00
7:13 PM,44.6,15.8,31,29.87,10.0,SSW,5.8,-,N/A,,Clear,210,2012-10-08 00:13:00
7:33 PM,42.8,15.8,34,29.87,10.0,SSW,4.6,-,N/A,,Clear,210,2012-10-08 00:33:00
7:53 PM,42.8,15.8,34,29.87,10.0,SSW,4.6,-,N/A,,Clear,200,2012-10-08 00:53:00
8:12 PM,42.8,15.8,34,29.86,10.0,SSW,5.8,-,N/A,,Clear,200,2012-10-08 01:12:00
8:33 PM,39.2,15.8,39,29.86,10.0,SSW,5.8,-,N/A,,Clear,200,2012-10-08 01:33:00
8:53 PM,39.2,15.8,39,29.86,10.0,SSW,4.6,-,N/A,,Clear,200,2012-10-08 01:53:00
9:12 PM,37.4,15.8,41,29.86,10.0,SSW,4.6,-,N/A,,Clear,200,2012-10-08 02:12:00
9:33 PM,37.4,15.8,41,29.85,10.0,SSW,6.9,-,N/A,,Clear,200,2012-10-08 02:33:00
9:53 PM,37.4,15.8,41,29.85,10.0,SSW,6.9,-,N/A,,Clear,200,2012-10-08 02:53:00
10:12 PM,37.4,15.8,41,29.84,10.0,SSW,8.1,-,N/A,,Clear,200,2012-10-08 03:12:00
10:33 PM,37.4,17.6,45,29.83,10.0,SSW,8.1,-,N/A,,Clear,200,2012-10-08 03:33:00
10:53 PM,35.6,17.6,48,29.83,10.0,SSW,6.9,-,N/A,,Clear,200,2012-10-08 03:53:00
11:12 PM,35.6,17.6,48,29.82,10.0,SSW,6.9,-,N/A,,Clear,200,2012-10-08 04:12:00
11:33 PM,33.8,17.6,52,29.82,10.0,SSW,6.9,-,N/A,,Clear,210,2012-10-08 04:33:00
11:52 PM,33.8,17.6,52,29.81,10.0,SSW,6.9,-,N/A,,Clear,200,2012-10-08 04:52:00